sensor_id;sensor_type;location;lat;lon;timestamp;temperature;humidity
40638;DHT22;26336;44.696;10.622;2024-03-23T00:56:22;13.50;99.90
40638;DHT22;26336;44.696;10.622;2024-03-23T00:59:27;13.50;99.90
40638;DHT22;26336;44.696;10.622;2024-03-23T01:02:32;13.50;99.90
40638;DHT22;26336;44.696;10.622;2024-03-23T01:05:37;13.50;99.90
40638;DHT22;26336;44.696;10.622;2024-03-23T01:08:40;13.50;99.90
40638;DHT22;26336;44.696;10.622;2024-03-23T01:11:45;13.50;99.90
40638;DHT22;26336;44.696;10.622;2024-03-23T01:14:48;13.40;99.90
40638;DHT22;26336;44.696;10.622;2024-03-23T01:17:52;13.40;99.90
40638;DHT22;26336;44.696;10.622;2024-03-23T01:20:56;13.40;99.90
40638;DHT22;26336;44.696;10.622;2024-03-23T01:24:00;13.30;99.90
40638;DHT22;26336;44.696;10.622;2024-03-23T01:27:04;13.20;99.90
40638;DHT22;26336;44.696;10.622;2024-03-23T01:30:08;13.20;99.90
40638;DHT22;26336;44.696;10.622;2024-03-23T01:33:12;13.20;99.90
40638;DHT22;26336;44.696;10.622;2024-03-23T01:36:16;13.10;99.90
40638;DHT22;26336;44.696;10.622;2024-03-23T01:39:20;12.90;99.90
40638;DHT22;26336;44.696;10.622;2024-03-23T01:42:24;12.90;99.90
40638;DHT22;26336;44.696;10.622;2024-03-23T01:45:28;13.00;99.90
40638;DHT22;26336;44.696;10.622;2024-03-23T01:48:32;13.00;99.90
40638;DHT22;26336;44.696;10.622;2024-03-23T01:51:37;13.00;99.90
40638;DHT22;26336;44.696;10.622;2024-03-23T01:54:41;13.00;99.90
40638;DHT22;26336;44.696;10.622;2024-03-23T01:57:45;13.00;99.90
40638;DHT22;26336;44.696;10.622;2024-03-23T02:00:48;13.00;99.90
40638;DHT22;26336;44.696;10.622;2024-03-23T02:03:52;13.00;99.90
40638;DHT22;26336;44.696;10.622;2024-03-23T02:06:56;12.90;99.90
40638;DHT22;26336;44.696;10.622;2024-03-23T02:10:01;12.90;99.90
40638;DHT22;26336;44.696;10.622;2024-03-23T02:13:05;12.90;99.90
40638;DHT22;26336;44.696;10.622;2024-03-23T02:16:09;12.80;99.90
40638;DHT22;26336;44.696;10.622;2024-03-23T02:19:13;12.80;99.90
40638;DHT22;26336;44.696;10.622;2024-03-23T02:22:17;12.80;99.90
40638;DHT22;26336;44.696;10.622;2024-03-23T02:25:21;12.90;99.90
40638;DHT22;26336;44.696;10.622;2024-03-23T02:28:25;12.90;99.90
40638;DHT22;26336;44.696;10.622;2024-03-23T02:31:29;12.90;99.90
40638;DHT22;26336;44.696;10.622;2024-03-23T02:34:33;12.90;99.90
40638;DHT22;26336;44.696;10.622;2024-03-23T02:37:37;12.90;99.90
40638;DHT22;26336;44.696;10.622;2024-03-23T02:40:41;12.90;99.90
40638;DHT22;26336;44.696;10.622;2024-03-23T02:43:45;12.90;99.90
40638;DHT22;26336;44.696;10.622;2024-03-23T02:46:49;12.90;99.90
40638;DHT22;26336;44.696;10.622;2024-03-23T02:49:53;12.90;99.90
40638;DHT22;26336;44.696;10.622;2024-03-23T02:52:58;12.90;99.90
40638;DHT22;26336;44.696;10.622;2024-03-23T02:56:01;12.90;99.90
40638;DHT22;26336;44.696;10.622;2024-03-23T02:59:06;12.90;99.90
40638;DHT22;26336;44.696;10.622;2024-03-23T03:02:10;12.90;99.90
40638;DHT22;26336;44.696;10.622;2024-03-23T03:05:14;12.80;99.90
40638;DHT22;26336;44.696;10.622;2024-03-23T03:08:18;12.60;99.90
40638;DHT22;26336;44.696;10.622;2024-03-23T03:11:23;12.60;99.90
40638;DHT22;26336;44.696;10.622;2024-03-23T03:14:27;12.60;99.90
40638;DHT22;26336;44.696;10.622;2024-03-23T03:17:32;12.40;99.90
40638;DHT22;26336;44.696;10.622;2024-03-23T03:20:42;12.40;99.90
40638;DHT22;26336;44.696;10.622;2024-03-23T03:23:46;12.40;99.90
40638;DHT22;26336;44.696;10.622;2024-03-23T03:26:50;12.40;99.90
40638;DHT22;26336;44.696;10.622;2024-03-23T03:29:53;12.40;99.90
40638;DHT22;26336;44.696;10.622;2024-03-23T03:32:57;12.50;99.90
40638;DHT22;26336;44.696;10.622;2024-03-23T03:36:01;12.50;99.90
40638;DHT22;26336;44.696;10.622;2024-03-23T03:39:05;12.40;99.90
40638;DHT22;26336;44.696;10.622;2024-03-23T03:42:10;12.40;99.90
40638;DHT22;26336;44.696;10.622;2024-03-23T03:45:14;12.40;99.90
40638;DHT22;26336;44.696;10.622;2024-03-23T03:48:18;12.40;99.90
40638;DHT22;26336;44.696;10.622;2024-03-23T03:51:22;12.40;99.90
40638;DHT22;26336;44.696;10.622;2024-03-23T03:54:26;12.40;99.90
40638;DHT22;26336;44.696;10.622;2024-03-23T03:57:30;12.40;99.90
40638;DHT22;26336;44.696;10.622;2024-03-23T04:00:34;12.30;99.90
40638;DHT22;26336;44.696;10.622;2024-03-23T04:03:39;12.30;99.90
40638;DHT22;26336;44.696;10.622;2024-03-23T04:06:47;12.20;99.90
40638;DHT22;26336;44.696;10.622;2024-03-23T04:09:51;12.20;99.90
40638;DHT22;26336;44.696;10.622;2024-03-23T04:12:55;12.20;99.90
40638;DHT22;26336;44.696;10.622;2024-03-23T04:15:59;12.20;99.90
40638;DHT22;26336;44.696;10.622;2024-03-23T04:19:03;12.20;99.90
40638;DHT22;26336;44.696;10.622;2024-03-23T04:22:07;12.30;99.90
40638;DHT22;26336;44.696;10.622;2024-03-23T04:25:13;12.20;99.90
40638;DHT22;26336;44.696;10.622;2024-03-23T04:28:16;12.30;99.90
40638;DHT22;26336;44.696;10.622;2024-03-23T04:31:21;12.30;99.90
40638;DHT22;26336;44.696;10.622;2024-03-23T04:34:25;12.20;99.90
40638;DHT22;26336;44.696;10.622;2024-03-23T04:37:29;12.20;99.90
40638;DHT22;26336;44.696;10.622;2024-03-23T04:40:33;12.10;99.90
40638;DHT22;26336;44.696;10.622;2024-03-23T04:43:37;12.10;99.90
40638;DHT22;26336;44.696;10.622;2024-03-23T04:46:41;12.00;99.90
40638;DHT22;26336;44.696;10.622;2024-03-23T04:49:45;12.00;99.90
40638;DHT22;26336;44.696;10.622;2024-03-23T04:53:07;11.90;99.90
40638;DHT22;26336;44.696;10.622;2024-03-23T04:56:11;11.80;99.90
40638;DHT22;26336;44.696;10.622;2024-03-23T04:59:15;11.90;99.90
40638;DHT22;26336;44.696;10.622;2024-03-23T05:02:19;11.90;99.90
40638;DHT22;26336;44.696;10.622;2024-03-23T05:05:23;12.00;99.90
40638;DHT22;26336;44.696;10.622;2024-03-23T05:08:26;12.10;99.90
40638;DHT22;26336;44.696;10.622;2024-03-23T05:11:30;12.00;99.90
40638;DHT22;26336;44.696;10.622;2024-03-23T05:14:34;12.00;99.90
40638;DHT22;26336;44.696;10.622;2024-03-23T05:17:39;12.10;99.90
40638;DHT22;26336;44.696;10.622;2024-03-23T05:20:43;12.00;99.90
40638;DHT22;26336;44.696;10.622;2024-03-23T05:23:47;12.00;99.90
40638;DHT22;26336;44.696;10.622;2024-03-23T05:26:51;12.00;99.90
40638;DHT22;26336;44.696;10.622;2024-03-23T05:29:55;12.00;99.90
40638;DHT22;26336;44.696;10.622;2024-03-23T05:32:59;11.90;99.90
40638;DHT22;26336;44.696;10.622;2024-03-23T05:36:03;12.00;99.90
40638;DHT22;26336;44.696;10.622;2024-03-23T05:39:07;12.00;99.90
40638;DHT22;26336;44.696;10.622;2024-03-23T05:42:11;12.00;99.90
40638;DHT22;26336;44.696;10.622;2024-03-23T05:45:15;12.00;99.90
40638;DHT22;26336;44.696;10.622;2024-03-23T05:48:22;12.00;99.90
40638;DHT22;26336;44.696;10.622;2024-03-23T05:51:27;11.90;99.90
40638;DHT22;26336;44.696;10.622;2024-03-23T05:54:31;12.00;99.90
40638;DHT22;26336;44.696;10.622;2024-03-23T05:57:34;11.90;99.90
40638;DHT22;26336;44.696;10.622;2024-03-23T06:00:38;12.00;99.90
40638;DHT22;26336;44.696;10.622;2024-03-23T06:03:42;11.90;99.90
40638;DHT22;26336;44.696;10.622;2024-03-23T06:06:47;11.90;99.90
40638;DHT22;26336;44.696;10.622;2024-03-23T06:09:51;11.90;99.90
40638;DHT22;26336;44.696;10.622;2024-03-23T06:12:55;11.90;99.90
40638;DHT22;26336;44.696;10.622;2024-03-23T06:15:59;11.90;99.90
40638;DHT22;26336;44.696;10.622;2024-03-23T06:19:03;11.90;99.90
40638;DHT22;26336;44.696;10.622;2024-03-23T06:22:10;11.90;99.90
40638;DHT22;26336;44.696;10.622;2024-03-23T06:25:14;12.00;99.90
40638;DHT22;26336;44.696;10.622;2024-03-23T06:28:18;12.00;99.90
40638;DHT22;26336;44.696;10.622;2024-03-23T06:31:22;11.90;99.90
40638;DHT22;26336;44.696;10.622;2024-03-23T06:34:26;11.90;99.90
40638;DHT22;26336;44.696;10.622;2024-03-23T06:37:31;11.80;99.90
40638;DHT22;26336;44.696;10.622;2024-03-23T06:40:36;12.00;99.90
40638;DHT22;26336;44.696;10.622;2024-03-23T06:43:40;12.10;99.90
40638;DHT22;26336;44.696;10.622;2024-03-23T06:46:44;12.20;99.90
40638;DHT22;26336;44.696;10.622;2024-03-23T06:49:48;12.20;99.90
40638;DHT22;26336;44.696;10.622;2024-03-23T06:52:53;12.30;99.90
40638;DHT22;26336;44.696;10.622;2024-03-23T06:55:57;12.40;99.90
40638;DHT22;26336;44.696;10.622;2024-03-23T06:59:01;12.50;99.90
40638;DHT22;26336;44.696;10.622;2024-03-23T07:02:05;12.50;99.90
40638;DHT22;26336;44.696;10.622;2024-03-23T07:05:12;12.60;99.90
40638;DHT22;26336;44.696;10.622;2024-03-23T07:08:16;12.70;99.90
40638;DHT22;26336;44.696;10.622;2024-03-23T07:11:25;12.80;99.90
40638;DHT22;26336;44.696;10.622;2024-03-23T07:14:29;12.90;99.90
40638;DHT22;26336;44.696;10.622;2024-03-23T07:17:33;13.10;99.90
40638;DHT22;26336;44.696;10.622;2024-03-23T07:20:38;13.10;99.90
40638;DHT22;26336;44.696;10.622;2024-03-23T07:23:42;13.30;99.90
40638;DHT22;26336;44.696;10.622;2024-03-23T07:26:48;13.50;99.90
40638;DHT22;26336;44.696;10.622;2024-03-23T07:29:53;13.60;99.90
40638;DHT22;26336;44.696;10.622;2024-03-23T07:32:59;13.80;99.90
40638;DHT22;26336;44.696;10.622;2024-03-23T07:36:03;14.00;99.90
40638;DHT22;26336;44.696;10.622;2024-03-23T07:39:08;14.20;99.90
40638;DHT22;26336;44.696;10.622;2024-03-23T07:42:12;14.40;99.90
40638;DHT22;26336;44.696;10.622;2024-03-23T07:45:16;14.50;99.90
40638;DHT22;26336;44.696;10.622;2024-03-23T07:48:23;14.60;99.90
40638;DHT22;26336;44.696;10.622;2024-03-23T07:51:46;14.70;99.90
40638;DHT22;26336;44.696;10.622;2024-03-23T07:54:50;14.70;99.90
40638;DHT22;26336;44.696;10.622;2024-03-23T07:57:54;14.80;99.90
40638;DHT22;26336;44.696;10.622;2024-03-23T08:01:04;14.80;99.90
40638;DHT22;26336;44.696;10.622;2024-03-23T08:04:09;14.90;99.90
40638;DHT22;26336;44.696;10.622;2024-03-23T08:07:13;15.00;99.90
40638;DHT22;26336;44.696;10.622;2024-03-23T08:10:17;15.10;99.90
40638;DHT22;26336;44.696;10.622;2024-03-23T08:13:22;15.30;99.90
40638;DHT22;26336;44.696;10.622;2024-03-23T08:16:26;15.40;99.90
40638;DHT22;26336;44.696;10.622;2024-03-23T08:19:30;15.60;99.80
40638;DHT22;26336;44.696;10.622;2024-03-23T08:22:34;15.70;98.90
40638;DHT22;26336;44.696;10.622;2024-03-23T08:25:38;15.80;98.30
40638;DHT22;26336;44.696;10.622;2024-03-23T08:28:42;15.90;98.50
40638;DHT22;26336;44.696;10.622;2024-03-23T08:31:46;16.00;97.90
40638;DHT22;26336;44.696;10.622;2024-03-23T08:34:50;16.10;97.50
40638;DHT22;26336;44.696;10.622;2024-03-23T08:37:53;16.20;96.80
40638;DHT22;26336;44.696;10.622;2024-03-23T08:44:08;16.50;98.40
40638;DHT22;26336;44.696;10.622;2024-03-23T08:47:12;16.60;98.40
40638;DHT22;26336;44.696;10.622;2024-03-23T08:50:16;16.70;97.00
40638;DHT22;26336;44.696;10.622;2024-03-23T08:53:20;16.70;95.90
40638;DHT22;26336;44.696;10.622;2024-03-23T08:56:24;16.80;95.20
40638;DHT22;26336;44.696;10.622;2024-03-23T08:59:29;16.90;94.70
40638;DHT22;26336;44.696;10.622;2024-03-23T09:02:33;17.00;94.50
40638;DHT22;26336;44.696;10.622;2024-03-23T09:05:40;17.00;94.80
40638;DHT22;26336;44.696;10.622;2024-03-23T09:08:44;17.10;95.20
40638;DHT22;26336;44.696;10.622;2024-03-23T09:11:48;17.10;95.50
40638;DHT22;26336;44.696;10.622;2024-03-23T09:14:52;17.20;95.60
40638;DHT22;26336;44.696;10.622;2024-03-23T09:17:59;17.20;95.70
40638;DHT22;26336;44.696;10.622;2024-03-23T09:21:04;17.30;95.80
40638;DHT22;26336;44.696;10.622;2024-03-23T09:24:08;17.30;96.00
40638;DHT22;26336;44.696;10.622;2024-03-23T09:27:12;17.50;96.20
40638;DHT22;26336;44.696;10.622;2024-03-23T09:30:16;17.50;96.40
40638;DHT22;26336;44.696;10.622;2024-03-23T09:33:20;17.60;96.20
40638;DHT22;26336;44.696;10.622;2024-03-23T09:36:25;17.70;96.40
40638;DHT22;26336;44.696;10.622;2024-03-23T09:39:29;17.80;96.70
40638;DHT22;26336;44.696;10.622;2024-03-23T09:42:33;17.90;96.80
40638;DHT22;26336;44.696;10.622;2024-03-23T09:45:40;18.00;96.70
40638;DHT22;26336;44.696;10.622;2024-03-23T09:48:46;18.00;96.80
40638;DHT22;26336;44.696;10.622;2024-03-23T09:51:50;18.20;97.00
40638;DHT22;26336;44.696;10.622;2024-03-23T09:54:54;18.20;97.10
40638;DHT22;26336;44.696;10.622;2024-03-23T09:57:59;18.30;97.30
40638;DHT22;26336;44.696;10.622;2024-03-23T10:01:03;18.40;97.00
40638;DHT22;26336;44.696;10.622;2024-03-23T10:04:07;18.50;96.60
40638;DHT22;26336;44.696;10.622;2024-03-23T10:07:13;18.60;95.50
40638;DHT22;26336;44.696;10.622;2024-03-23T10:10:17;18.60;95.50
40638;DHT22;26336;44.696;10.622;2024-03-23T10:13:28;18.60;95.50
40638;DHT22;26336;44.696;10.622;2024-03-23T10:16:35;18.70;95.60
40638;DHT22;26336;44.696;10.622;2024-03-23T10:19:40;18.70;96.30
40638;DHT22;26336;44.696;10.622;2024-03-23T10:22:44;18.90;96.90
40638;DHT22;26336;44.696;10.622;2024-03-23T10:25:48;18.90;97.10
40638;DHT22;26336;44.696;10.622;2024-03-23T10:29:01;18.90;97.00
40638;DHT22;26336;44.696;10.622;2024-03-23T10:32:13;18.90;97.20
40638;DHT22;26336;44.696;10.622;2024-03-23T10:35:21;19.00;96.80
40638;DHT22;26336;44.696;10.622;2024-03-23T10:38:27;18.90;96.80
40638;DHT22;26336;44.696;10.622;2024-03-23T10:41:34;19.00;96.80
40638;DHT22;26336;44.696;10.622;2024-03-23T10:44:38;19.00;97.00
40638;DHT22;26336;44.696;10.622;2024-03-23T10:47:42;19.00;96.60
40638;DHT22;26336;44.696;10.622;2024-03-23T10:50:46;19.00;97.20
40638;DHT22;26336;44.696;10.622;2024-03-23T10:53:51;19.00;97.00
40638;DHT22;26336;44.696;10.622;2024-03-23T10:57:01;19.00;97.00
40638;DHT22;26336;44.696;10.622;2024-03-23T11:00:08;19.00;97.30
40638;DHT22;26336;44.696;10.622;2024-03-23T11:03:31;19.00;97.30
40638;DHT22;26336;44.696;10.622;2024-03-23T11:06:39;19.10;97.60
40638;DHT22;26336;44.696;10.622;2024-03-23T11:09:46;19.10;97.70
40638;DHT22;26336;44.696;10.622;2024-03-23T11:12:50;19.10;97.30
40638;DHT22;26336;44.696;10.622;2024-03-23T11:15:54;19.10;97.40
40638;DHT22;26336;44.696;10.622;2024-03-23T11:19:34;19.10;97.30
40638;DHT22;26336;44.696;10.622;2024-03-23T11:22:41;19.10;97.50
40638;DHT22;26336;44.696;10.622;2024-03-23T11:25:46;19.20;97.40
40638;DHT22;26336;44.696;10.622;2024-03-23T11:28:50;19.20;97.30
40638;DHT22;26336;44.696;10.622;2024-03-23T11:32:12;19.20;97.40
40638;DHT22;26336;44.696;10.622;2024-03-23T11:35:30;19.20;97.50
40638;DHT22;26336;44.696;10.622;2024-03-23T11:38:37;19.20;97.40
40638;DHT22;26336;44.696;10.622;2024-03-23T11:41:52;19.30;97.80
40638;DHT22;26336;44.696;10.622;2024-03-23T11:45:08;19.40;97.90
40638;DHT22;26336;44.696;10.622;2024-03-23T11:48:16;19.40;97.80
40638;DHT22;26336;44.696;10.622;2024-03-23T11:51:21;19.40;97.70
40638;DHT22;26336;44.696;10.622;2024-03-23T11:54:26;19.50;98.00
40638;DHT22;26336;44.696;10.622;2024-03-23T11:57:30;19.50;97.60
40638;DHT22;26336;44.696;10.622;2024-03-23T12:00:35;19.50;97.70
40638;DHT22;26336;44.696;10.622;2024-03-23T12:03:39;19.50;97.90
40638;DHT22;26336;44.696;10.622;2024-03-23T12:06:47;19.60;97.80
40638;DHT22;26336;44.696;10.622;2024-03-23T12:10:04;19.60;97.20
40638;DHT22;26336;44.696;10.622;2024-03-23T12:13:09;19.60;97.80
40638;DHT22;26336;44.696;10.622;2024-03-23T12:16:18;19.60;97.20
40638;DHT22;26336;44.696;10.622;2024-03-23T12:19:25;19.70;97.50
40638;DHT22;26336;44.696;10.622;2024-03-23T12:22:30;19.70;97.00
40638;DHT22;26336;44.696;10.622;2024-03-23T12:25:35;19.70;97.00
40638;DHT22;26336;44.696;10.622;2024-03-23T12:28:40;19.80;96.40
40638;DHT22;26336;44.696;10.622;2024-03-23T12:31:43;19.80;95.40
40638;DHT22;26336;44.696;10.622;2024-03-23T12:34:47;19.80;95.80
40638;DHT22;26336;44.696;10.622;2024-03-23T12:37:51;19.90;96.10
40638;DHT22;26336;44.696;10.622;2024-03-23T12:40:55;19.90;96.20
40638;DHT22;26336;44.696;10.622;2024-03-23T12:43:59;20.00;96.00
40638;DHT22;26336;44.696;10.622;2024-03-23T12:47:03;20.10;96.60
40638;DHT22;26336;44.696;10.622;2024-03-23T12:50:11;20.00;95.80
40638;DHT22;26336;44.696;10.622;2024-03-23T12:53:15;20.10;95.80
40638;DHT22;26336;44.696;10.622;2024-03-23T12:56:21;20.20;95.70
40638;DHT22;26336;44.696;10.622;2024-03-23T12:59:25;20.20;95.70
40638;DHT22;26336;44.696;10.622;2024-03-23T13:02:29;20.20;95.70
40638;DHT22;26336;44.696;10.622;2024-03-23T13:05:33;20.20;95.50
40638;DHT22;26336;44.696;10.622;2024-03-23T13:08:37;20.10;95.70
40638;DHT22;26336;44.696;10.622;2024-03-23T13:11:41;20.10;95.80
40638;DHT22;26336;44.696;10.622;2024-03-23T13:14:45;20.20;95.40
40638;DHT22;26336;44.696;10.622;2024-03-23T13:17:50;20.20;95.80
40638;DHT22;26336;44.696;10.622;2024-03-23T13:20:56;20.10;95.80
40638;DHT22;26336;44.696;10.622;2024-03-23T13:24:00;20.00;95.80
40638;DHT22;26336;44.696;10.622;2024-03-23T13:27:04;20.00;96.20
40638;DHT22;26336;44.696;10.622;2024-03-23T13:30:17;19.90;94.70
40638;DHT22;26336;44.696;10.622;2024-03-23T13:33:22;20.00;93.50
40638;DHT22;26336;44.696;10.622;2024-03-23T13:36:29;20.00;93.00
40638;DHT22;26336;44.696;10.622;2024-03-23T13:39:40;20.10;93.30
40638;DHT22;26336;44.696;10.622;2024-03-23T13:42:46;20.20;93.30
40638;DHT22;26336;44.696;10.622;2024-03-23T13:45:56;20.30;93.30
40638;DHT22;26336;44.696;10.622;2024-03-23T13:49:00;20.40;94.30
40638;DHT22;26336;44.696;10.622;2024-03-23T13:52:04;20.40;94.10
40638;DHT22;26336;44.696;10.622;2024-03-23T13:55:10;20.40;92.30
40638;DHT22;26336;44.696;10.622;2024-03-23T13:58:17;20.50;92.70
40638;DHT22;26336;44.696;10.622;2024-03-23T14:01:22;20.50;92.00
40638;DHT22;26336;44.696;10.622;2024-03-23T14:04:26;20.50;92.10
40638;DHT22;26336;44.696;10.622;2024-03-23T14:07:30;20.60;92.50
40638;DHT22;26336;44.696;10.622;2024-03-23T14:10:34;20.60;92.50
40638;DHT22;26336;44.696;10.622;2024-03-23T14:13:39;20.50;92.40
40638;DHT22;26336;44.696;10.622;2024-03-23T14:16:44;20.50;92.80
40638;DHT22;26336;44.696;10.622;2024-03-23T14:19:48;20.50;92.90
40638;DHT22;26336;44.696;10.622;2024-03-23T14:22:52;20.50;93.00
40638;DHT22;26336;44.696;10.622;2024-03-23T14:25:56;20.50;93.30
40638;DHT22;26336;44.696;10.622;2024-03-23T14:29:00;20.40;93.60
40638;DHT22;26336;44.696;10.622;2024-03-23T14:32:04;20.40;94.10
40638;DHT22;26336;44.696;10.622;2024-03-23T14:35:08;20.40;94.00
40638;DHT22;26336;44.696;10.622;2024-03-23T14:38:14;20.40;93.90
40638;DHT22;26336;44.696;10.622;2024-03-23T14:41:18;20.40;94.10
40638;DHT22;26336;44.696;10.622;2024-03-23T14:44:22;20.40;93.90
40638;DHT22;26336;44.696;10.622;2024-03-23T14:47:26;20.30;93.80
40638;DHT22;26336;44.696;10.622;2024-03-23T14:50:30;20.40;93.70
40638;DHT22;26336;44.696;10.622;2024-03-23T14:53:35;20.40;93.30
40638;DHT22;26336;44.696;10.622;2024-03-23T14:56:39;20.40;93.70
40638;DHT22;26336;44.696;10.622;2024-03-23T14:59:43;20.40;93.30
40638;DHT22;26336;44.696;10.622;2024-03-23T15:02:47;20.40;93.50
40638;DHT22;26336;44.696;10.622;2024-03-23T15:05:55;20.30;93.20
40638;DHT22;26336;44.696;10.622;2024-03-23T15:08:59;20.40;93.30
40638;DHT22;26336;44.696;10.622;2024-03-23T15:12:04;20.40;93.60
40638;DHT22;26336;44.696;10.622;2024-03-23T15:15:08;20.40;93.10
40638;DHT22;26336;44.696;10.622;2024-03-23T15:18:12;20.40;93.30
40638;DHT22;26336;44.696;10.622;2024-03-23T15:21:18;20.40;93.20
40638;DHT22;26336;44.696;10.622;2024-03-23T15:24:25;20.50;93.60
40638;DHT22;26336;44.696;10.622;2024-03-23T15:27:29;20.50;93.30
40638;DHT22;26336;44.696;10.622;2024-03-23T15:30:33;20.50;93.30
40638;DHT22;26336;44.696;10.622;2024-03-23T15:33:37;20.50;93.30
40638;DHT22;26336;44.696;10.622;2024-03-23T15:36:43;20.40;93.30
40638;DHT22;26336;44.696;10.622;2024-03-23T15:39:48;20.40;93.10
40638;DHT22;26336;44.696;10.622;2024-03-23T15:42:52;20.40;93.10
40638;DHT22;26336;44.696;10.622;2024-03-23T15:46:03;20.40;93.00
40638;DHT22;26336;44.696;10.622;2024-03-23T15:49:10;20.40;93.40
40638;DHT22;26336;44.696;10.622;2024-03-23T15:52:14;20.30;93.40
40638;DHT22;26336;44.696;10.622;2024-03-23T15:55:19;20.30;93.20
40638;DHT22;26336;44.696;10.622;2024-03-23T15:58:24;20.30;93.20
40638;DHT22;26336;44.696;10.622;2024-03-23T16:01:28;20.30;93.20
40638;DHT22;26336;44.696;10.622;2024-03-23T16:04:32;20.30;93.40
40638;DHT22;26336;44.696;10.622;2024-03-23T16:07:37;20.30;93.60
40638;DHT22;26336;44.696;10.622;2024-03-23T16:10:41;20.20;93.30
40638;DHT22;26336;44.696;10.622;2024-03-23T16:13:45;20.20;93.60
40638;DHT22;26336;44.696;10.622;2024-03-23T16:16:50;20.10;93.50
40638;DHT22;26336;44.696;10.622;2024-03-23T16:19:54;20.10;93.60
40638;DHT22;26336;44.696;10.622;2024-03-23T16:22:58;20.00;93.90
40638;DHT22;26336;44.696;10.622;2024-03-23T16:26:02;19.90;93.90
40638;DHT22;26336;44.696;10.622;2024-03-23T16:29:06;19.90;94.10
40638;DHT22;26336;44.696;10.622;2024-03-23T16:32:11;19.80;94.10
40638;DHT22;26336;44.696;10.622;2024-03-23T16:35:15;19.80;94.20
40638;DHT22;26336;44.696;10.622;2024-03-23T16:38:19;19.70;94.20
40638;DHT22;26336;44.696;10.622;2024-03-23T16:41:24;19.70;94.40
40638;DHT22;26336;44.696;10.622;2024-03-23T16:44:27;19.60;94.20
40638;DHT22;26336;44.696;10.622;2024-03-23T16:47:31;19.50;94.40
40638;DHT22;26336;44.696;10.622;2024-03-23T16:50:37;19.50;94.50
40638;DHT22;26336;44.696;10.622;2024-03-23T16:53:41;19.40;94.40
40638;DHT22;26336;44.696;10.622;2024-03-23T16:56:46;19.40;94.50
40638;DHT22;26336;44.696;10.622;2024-03-23T16:59:50;19.30;94.80
40638;DHT22;26336;44.696;10.622;2024-03-23T17:02:54;19.30;94.80
40638;DHT22;26336;44.696;10.622;2024-03-23T17:05:58;19.20;94.90
40638;DHT22;26336;44.696;10.622;2024-03-23T17:09:02;19.20;95.10
40638;DHT22;26336;44.696;10.622;2024-03-23T17:12:06;19.20;95.20
40638;DHT22;26336;44.696;10.622;2024-03-23T17:15:11;19.10;95.40
40638;DHT22;26336;44.696;10.622;2024-03-23T17:18:15;19.10;95.50
40638;DHT22;26336;44.696;10.622;2024-03-23T17:21:19;19.00;95.60
40638;DHT22;26336;44.696;10.622;2024-03-23T17:24:23;19.00;95.60
40638;DHT22;26336;44.696;10.622;2024-03-23T17:27:27;18.90;95.70
40638;DHT22;26336;44.696;10.622;2024-03-23T17:30:31;18.90;95.60
40638;DHT22;26336;44.696;10.622;2024-03-23T17:33:34;18.90;95.70
40638;DHT22;26336;44.696;10.622;2024-03-23T17:36:38;18.80;95.40
40638;DHT22;26336;44.696;10.622;2024-03-23T17:39:42;18.70;95.30
40638;DHT22;26336;44.696;10.622;2024-03-23T17:42:46;18.70;95.30
40638;DHT22;26336;44.696;10.622;2024-03-23T17:45:50;18.60;95.40
40638;DHT22;26336;44.696;10.622;2024-03-23T17:48:54;18.60;95.60
40638;DHT22;26336;44.696;10.622;2024-03-23T17:52:00;18.50;95.40
40638;DHT22;26336;44.696;10.622;2024-03-23T17:55:04;18.50;95.70
40638;DHT22;26336;44.696;10.622;2024-03-23T17:58:09;18.40;95.20
40638;DHT22;26336;44.696;10.622;2024-03-23T18:01:12;18.30;95.30
40638;DHT22;26336;44.696;10.622;2024-03-23T18:04:16;18.30;95.50
40638;DHT22;26336;44.696;10.622;2024-03-23T18:07:21;18.20;95.50
40638;DHT22;26336;44.696;10.622;2024-03-23T18:10:26;18.10;95.80
40638;DHT22;26336;44.696;10.622;2024-03-23T18:13:30;18.00;95.90
40638;DHT22;26336;44.696;10.622;2024-03-23T18:16:34;18.00;96.00
40638;DHT22;26336;44.696;10.622;2024-03-23T18:19:39;18.00;96.20
40638;DHT22;26336;44.696;10.622;2024-03-23T18:22:45;17.90;96.40
40638;DHT22;26336;44.696;10.622;2024-03-23T18:25:55;17.90;96.40
40638;DHT22;26336;44.696;10.622;2024-03-23T18:29:00;17.80;96.40
40638;DHT22;26336;44.696;10.622;2024-03-23T18:32:04;17.80;96.40
40638;DHT22;26336;44.696;10.622;2024-03-23T18:35:08;17.80;96.40
40638;DHT22;26336;44.696;10.622;2024-03-23T18:38:12;17.70;96.40
40638;DHT22;26336;44.696;10.622;2024-03-23T18:41:16;17.70;96.40
40638;DHT22;26336;44.696;10.622;2024-03-23T18:44:20;17.70;96.40
40638;DHT22;26336;44.696;10.622;2024-03-23T18:47:25;17.70;96.40
40638;DHT22;26336;44.696;10.622;2024-03-23T18:50:29;17.70;96.50
40638;DHT22;26336;44.696;10.622;2024-03-23T18:53:33;17.70;96.60
40638;DHT22;26336;44.696;10.622;2024-03-23T18:56:37;17.60;96.80
40638;DHT22;26336;44.696;10.622;2024-03-23T18:59:41;17.60;97.00
40638;DHT22;26336;44.696;10.622;2024-03-23T19:02:45;17.60;97.00
40638;DHT22;26336;44.696;10.622;2024-03-23T19:05:56;17.60;97.20
40638;DHT22;26336;44.696;10.622;2024-03-23T19:09:00;17.60;97.30
40638;DHT22;26336;44.696;10.622;2024-03-23T19:12:05;17.50;97.40
40638;DHT22;26336;44.696;10.622;2024-03-23T19:15:09;17.50;97.60
40638;DHT22;26336;44.696;10.622;2024-03-23T19:18:17;17.50;97.50
40638;DHT22;26336;44.696;10.622;2024-03-23T19:21:21;17.50;97.60
40638;DHT22;26336;44.696;10.622;2024-03-23T19:24:25;17.50;97.50
40638;DHT22;26336;44.696;10.622;2024-03-23T19:27:29;17.40;97.50
40638;DHT22;26336;44.696;10.622;2024-03-23T19:30:35;17.50;97.50
40638;DHT22;26336;44.696;10.622;2024-03-23T19:33:39;17.40;97.50
40638;DHT22;26336;44.696;10.622;2024-03-23T19:36:42;17.40;97.40
40638;DHT22;26336;44.696;10.622;2024-03-23T19:39:46;17.40;97.40
40638;DHT22;26336;44.696;10.622;2024-03-23T19:42:51;17.40;97.40
40638;DHT22;26336;44.696;10.622;2024-03-23T19:45:54;17.40;97.40
40638;DHT22;26336;44.696;10.622;2024-03-23T19:49:01;17.40;97.20
40638;DHT22;26336;44.696;10.622;2024-03-23T19:52:05;17.40;97.20
40638;DHT22;26336;44.696;10.622;2024-03-23T19:55:09;17.40;97.20
40638;DHT22;26336;44.696;10.622;2024-03-23T19:58:13;17.30;97.20
40638;DHT22;26336;44.696;10.622;2024-03-23T20:01:18;17.40;97.10
40638;DHT22;26336;44.696;10.622;2024-03-23T20:04:22;17.30;97.00
40638;DHT22;26336;44.696;10.622;2024-03-23T20:07:26;17.30;97.00